sensor_id;sensor_type;location;lat;lon;timestamp;P1;durP1;ratioP1;P2;durP2;ratioP2
73239;SDS011;61452;40.054;4.110;2023-01-01T00:01:59;2.70;;;1.17;;
73239;SDS011;61452;40.054;4.110;2023-01-01T00:07:02;2.00;;;0.88;;
73239;SDS011;61452;40.054;4.110;2023-01-01T00:12:04;1.67;;;1.23;;
73239;SDS011;61452;40.054;4.110;2023-01-01T00:17:07;2.25;;;1.08;;
73239;SDS011;61452;40.054;4.110;2023-01-01T00:22:09;2.88;;;1.00;;
73239;SDS011;61452;40.054;4.110;2023-01-01T00:27:31;2.63;;;0.80;;
73239;SDS011;61452;40.054;4.110;2023-01-01T00:32:33;2.58;;;0.85;;
73239;SDS011;61452;40.054;4.110;2023-01-01T00:37:36;2.13;;;1.00;;
73239;SDS011;61452;40.054;4.110;2023-01-01T00:42:45;1.75;;;1.00;;
73239;SDS011;61452;40.054;4.110;2023-01-01T00:47:47;3.72;;;1.38;;
73239;SDS011;61452;40.054;4.110;2023-01-01T00:57:53;2.45;;;1.10;;
73239;SDS011;61452;40.054;4.110;2023-01-01T01:02:55;3.30;;;1.10;;
73239;SDS011;61452;40.054;4.110;2023-01-01T01:07:58;3.13;;;0.95;;
73239;SDS011;61452;40.054;4.110;2023-01-01T01:13:00;1.08;;;0.80;;
73239;SDS011;61452;40.054;4.110;2023-01-01T01:18:03;2.38;;;1.17;;
73239;SDS011;61452;40.054;4.110;2023-01-01T01:23:05;2.05;;;0.90;;
73239;SDS011;61452;40.054;4.110;2023-01-01T01:28:07;2.10;;;0.98;;
73239;SDS011;61452;40.054;4.110;2023-01-01T01:33:09;2.40;;;0.90;;
73239;SDS011;61452;40.054;4.110;2023-01-01T01:38:12;2.00;;;0.90;;
73239;SDS011;61452;40.054;4.110;2023-01-01T01:43:24;3.40;;;1.08;;
73239;SDS011;61452;40.054;4.110;2023-01-01T01:48:50;2.05;;;1.23;;
73239;SDS011;61452;40.054;4.110;2023-01-01T01:53:56;4.45;;;1.10;;
73239;SDS011;61452;40.054;4.110;2023-01-01T01:59:03;1.80;;;1.10;;
73239;SDS011;61452;40.054;4.110;2023-01-01T02:04:06;2.28;;;1.20;;
73239;SDS011;61452;40.054;4.110;2023-01-01T02:09:08;1.40;;;0.73;;
73239;SDS011;61452;40.054;4.110;2023-01-01T02:14:11;2.35;;;0.98;;
73239;SDS011;61452;40.054;4.110;2023-01-01T02:19:19;1.70;;;0.90;;
73239;SDS011;61452;40.054;4.110;2023-01-01T02:24:50;1.65;;;0.93;;
73239;SDS011;61452;40.054;4.110;2023-01-01T02:30:01;1.83;;;0.80;;
73239;SDS011;61452;40.054;4.110;2023-01-01T02:35:11;2.83;;;0.90;;
73239;SDS011;61452;40.054;4.110;2023-01-01T02:40:55;1.88;;;0.90;;
73239;SDS011;61452;40.054;4.110;2023-01-01T02:46:05;2.55;;;0.93;;
73239;SDS011;61452;40.054;4.110;2023-01-01T02:51:15;1.95;;;0.98;;
73239;SDS011;61452;40.054;4.110;2023-01-01T02:56:32;1.23;;;1.05;;
73239;SDS011;61452;40.054;4.110;2023-01-01T03:07:25;2.03;;;1.08;;
73239;SDS011;61452;40.054;4.110;2023-01-01T03:18:32;4.53;;;1.02;;
73239;SDS011;61452;40.054;4.110;2023-01-01T03:23:17;2.45;;;1.10;;
73239;SDS011;61452;40.054;4.110;2023-01-01T03:28:29;1.90;;;0.95;;
73239;SDS011;61452;40.054;4.110;2023-01-01T03:33:37;1.73;;;1.05;;
73239;SDS011;61452;40.054;4.110;2023-01-01T03:38:46;2.58;;;1.00;;
73239;SDS011;61452;40.054;4.110;2023-01-01T03:44:00;2.50;;;1.00;;
73239;SDS011;61452;40.054;4.110;2023-01-01T03:49:07;2.67;;;0.85;;
73239;SDS011;61452;40.054;4.110;2023-01-01T03:54:21;2.20;;;1.02;;
73239;SDS011;61452;40.054;4.110;2023-01-01T03:59:32;2.13;;;0.80;;
73239;SDS011;61452;40.054;4.110;2023-01-01T04:04:43;2.70;;;1.08;;
73239;SDS011;61452;40.054;4.110;2023-01-01T04:09:48;1.98;;;0.90;;
73239;SDS011;61452;40.054;4.110;2023-01-01T04:14:52;2.85;;;1.17;;
73239;SDS011;61452;40.054;4.110;2023-01-01T04:19:55;1.63;;;0.80;;
73239;SDS011;61452;40.054;4.110;2023-01-01T04:24:57;1.92;;;0.90;;
73239;SDS011;61452;40.054;4.110;2023-01-01T04:29:59;3.17;;;0.93;;
73239;SDS011;61452;40.054;4.110;2023-01-01T04:35:01;1.85;;;0.85;;
73239;SDS011;61452;40.054;4.110;2023-01-01T04:40:04;1.98;;;0.88;;
73239;SDS011;61452;40.054;4.110;2023-01-01T04:45:07;2.17;;;1.08;;
73239;SDS011;61452;40.054;4.110;2023-01-01T04:50:10;1.88;;;1.00;;
73239;SDS011;61452;40.054;4.110;2023-01-01T04:55:12;2.45;;;0.80;;
73239;SDS011;61452;40.054;4.110;2023-01-01T05:00:14;1.25;;;0.85;;
73239;SDS011;61452;40.054;4.110;2023-01-01T05:05:17;2.88;;;1.08;;
73239;SDS011;61452;40.054;4.110;2023-01-01T05:10:19;2.25;;;0.88;;
73239;SDS011;61452;40.054;4.110;2023-01-01T05:15:22;3.03;;;1.15;;
73239;SDS011;61452;40.054;4.110;2023-01-01T05:20:24;1.52;;;0.98;;
73239;SDS011;61452;40.054;4.110;2023-01-01T05:25:26;2.08;;;1.10;;
73239;SDS011;61452;40.054;4.110;2023-01-01T05:30:29;3.13;;;1.10;;
73239;SDS011;61452;40.054;4.110;2023-01-01T05:35:31;1.77;;;0.88;;
73239;SDS011;61452;40.054;4.110;2023-01-01T05:40:33;1.67;;;0.90;;
73239;SDS011;61452;40.054;4.110;2023-01-01T05:45:38;1.75;;;0.95;;
73239;SDS011;61452;40.054;4.110;2023-01-01T05:50:41;2.60;;;1.17;;
73239;SDS011;61452;40.054;4.110;2023-01-01T05:55:43;2.78;;;0.98;;
73239;SDS011;61452;40.054;4.110;2023-01-01T06:00:45;1.58;;;0.73;;
73239;SDS011;61452;40.054;4.110;2023-01-01T06:05:48;4.38;;;1.90;;
73239;SDS011;61452;40.054;4.110;2023-01-01T06:10:56;1.50;;;0.80;;
73239;SDS011;61452;40.054;4.110;2023-01-01T06:16:05;2.05;;;1.05;;
73239;SDS011;61452;40.054;4.110;2023-01-01T06:21:12;2.42;;;1.00;;
73239;SDS011;61452;40.054;4.110;2023-01-01T06:26:20;1.15;;;0.85;;
73239;SDS011;61452;40.054;4.110;2023-01-01T06:31:24;2.08;;;1.00;;
73239;SDS011;61452;40.054;4.110;2023-01-01T06:36:27;1.92;;;0.98;;
73239;SDS011;61452;40.054;4.110;2023-01-01T06:41:30;1.73;;;0.90;;
73239;SDS011;61452;40.054;4.110;2023-01-01T06:46:33;3.33;;;1.15;;
73239;SDS011;61452;40.054;4.110;2023-01-01T06:51:37;1.65;;;0.80;;
73239;SDS011;61452;40.054;4.110;2023-01-01T06:56:42;2.28;;;1.00;;
73239;SDS011;61452;40.054;4.110;2023-01-01T07:01:44;2.42;;;0.95;;
73239;SDS011;61452;40.054;4.110;2023-01-01T07:06:46;3.28;;;1.00;;
73239;SDS011;61452;40.054;4.110;2023-01-01T07:11:48;2.78;;;1.02;;
73239;SDS011;61452;40.054;4.110;2023-01-01T07:16:51;2.33;;;1.13;;
73239;SDS011;61452;40.054;4.110;2023-01-01T07:21:53;1.70;;;1.00;;
73239;SDS011;61452;40.054;4.110;2023-01-01T07:26:56;2.10;;;1.25;;
73239;SDS011;61452;40.054;4.110;2023-01-01T07:31:58;2.38;;;1.20;;
73239;SDS011;61452;40.054;4.110;2023-01-01T07:37:00;2.85;;;1.35;;
73239;SDS011;61452;40.054;4.110;2023-01-01T07:42:03;2.30;;;1.33;;
73239;SDS011;61452;40.054;4.110;2023-01-01T07:47:21;1.90;;;1.10;;
73239;SDS011;61452;40.054;4.110;2023-01-01T07:52:25;3.28;;;1.00;;
73239;SDS011;61452;40.054;4.110;2023-01-01T07:57:27;2.47;;;1.10;;
73239;SDS011;61452;40.054;4.110;2023-01-01T08:02:30;3.88;;;1.30;;
73239;SDS011;61452;40.054;4.110;2023-01-01T08:07:32;3.50;;;1.20;;
73239;SDS011;61452;40.054;4.110;2023-01-01T08:12:35;2.40;;;1.10;;
73239;SDS011;61452;40.054;4.110;2023-01-01T08:17:37;1.83;;;1.10;;
73239;SDS011;61452;40.054;4.110;2023-01-01T08:22:47;3.22;;;1.13;;
73239;SDS011;61452;40.054;4.110;2023-01-01T08:27:49;2.75;;;1.30;;
73239;SDS011;61452;40.054;4.110;2023-01-01T08:32:51;1.85;;;1.13;;
73239;SDS011;61452;40.054;4.110;2023-01-01T08:37:53;2.40;;;1.20;;
73239;SDS011;61452;40.054;4.110;2023-01-01T08:42:56;2.45;;;1.40;;
73239;SDS011;61452;40.054;4.110;2023-01-01T08:47:58;1.65;;;0.93;;
73239;SDS011;61452;40.054;4.110;2023-01-01T08:53:01;2.50;;;1.10;;
73239;SDS011;61452;40.054;4.110;2023-01-01T08:58:06;2.72;;;1.30;;
73239;SDS011;61452;40.054;4.110;2023-01-01T09:03:08;2.05;;;1.23;;
73239;SDS011;61452;40.054;4.110;2023-01-01T09:08:11;1.83;;;1.00;;
73239;SDS011;61452;40.054;4.110;2023-01-01T09:13:15;3.47;;;1.23;;
73239;SDS011;61452;40.054;4.110;2023-01-01T09:18:18;1.83;;;1.13;;
73239;SDS011;61452;40.054;4.110;2023-01-01T09:23:21;3.00;;;1.10;;
73239;SDS011;61452;40.054;4.110;2023-01-01T09:28:23;1.70;;;1.10;;
73239;SDS011;61452;40.054;4.110;2023-01-01T09:33:26;2.47;;;1.17;;
73239;SDS011;61452;40.054;4.110;2023-01-01T09:38:29;1.50;;;1.20;;
73239;SDS011;61452;40.054;4.110;2023-01-01T09:49:05;2.30;;;1.10;;
73239;SDS011;61452;40.054;4.110;2023-01-01T09:55:02;1.50;;;1.05;;
73239;SDS011;61452;40.054;4.110;2023-01-01T09:59:44;2.60;;;1.27;;
73239;SDS011;61452;40.054;4.110;2023-01-01T10:15:26;1.67;;;1.20;;
73239;SDS011;61452;40.054;4.110;2023-01-01T10:20:37;3.25;;;1.45;;
73239;SDS011;61452;40.054;4.110;2023-01-01T10:25:44;1.58;;;1.27;;
73239;SDS011;61452;40.054;4.110;2023-01-01T10:30:46;1.85;;;1.38;;
73239;SDS011;61452;40.054;4.110;2023-01-01T10:35:51;1.50;;;1.20;;
73239;SDS011;61452;40.054;4.110;2023-01-01T10:41:01;3.08;;;1.25;;
73239;SDS011;61452;40.054;4.110;2023-01-01T10:46:09;1.88;;;1.30;;
73239;SDS011;61452;40.054;4.110;2023-01-01T10:51:15;2.28;;;1.13;;
73239;SDS011;61452;40.054;4.110;2023-01-01T11:06:35;2.05;;;1.27;;
73239;SDS011;61452;40.054;4.110;2023-01-01T11:11:43;2.83;;;1.10;;
73239;SDS011;61452;40.054;4.110;2023-01-01T11:16:47;2.00;;;1.10;;
73239;SDS011;61452;40.054;4.110;2023-01-01T11:21:50;1.90;;;0.98;;
73239;SDS011;61452;40.054;4.110;2023-01-01T11:26:53;1.83;;;0.90;;
73239;SDS011;61452;40.054;4.110;2023-01-01T11:32:20;1.95;;;1.10;;
73239;SDS011;61452;40.054;4.110;2023-01-01T11:37:31;2.08;;;1.00;;
73239;SDS011;61452;40.054;4.110;2023-01-01T11:42:42;2.35;;;1.20;;
73239;SDS011;61452;40.054;4.110;2023-01-01T11:47:59;1.95;;;1.20;;
73239;SDS011;61452;40.054;4.110;2023-01-01T12:03:44;2.33;;;1.00;;
73239;SDS011;61452;40.054;4.110;2023-01-01T12:14:31;2.13;;;1.33;;
73239;SDS011;61452;40.054;4.110;2023-01-01T12:24:55;2.40;;;1.42;;
73239;SDS011;61452;40.054;4.110;2023-01-01T12:56:31;2.10;;;1.30;;
73239;SDS011;61452;40.054;4.110;2023-01-01T13:01:40;1.95;;;1.20;;
73239;SDS011;61452;40.054;4.110;2023-01-01T13:06:44;1.80;;;1.27;;
73239;SDS011;61452;40.054;4.110;2023-01-01T13:12:14;1.50;;;1.23;;
73239;SDS011;61452;40.054;4.110;2023-01-01T13:17:20;3.60;;;1.17;;
73239;SDS011;61452;40.054;4.110;2023-01-01T13:33:23;1.85;;;1.20;;
73239;SDS011;61452;40.054;4.110;2023-01-01T13:38:45;1.15;;;0.90;;
73239;SDS011;61452;40.054;4.110;2023-01-01T13:49:04;2.17;;;1.20;;
73239;SDS011;61452;40.054;4.110;2023-01-01T13:59:47;1.45;;;1.00;;
73239;SDS011;61452;40.054;4.110;2023-01-01T14:04:57;1.67;;;1.20;;
73239;SDS011;61452;40.054;4.110;2023-01-01T14:10:23;2.35;;;1.00;;
73239;SDS011;61452;40.054;4.110;2023-01-01T14:15:30;1.27;;;1.00;;
73239;SDS011;61452;40.054;4.110;2023-01-01T14:25:47;1.77;;;1.10;;
73239;SDS011;61452;40.054;4.110;2023-01-01T14:30:50;2.08;;;1.13;;
73239;SDS011;61452;40.054;4.110;2023-01-01T14:35:55;1.98;;;1.30;;
73239;SDS011;61452;40.054;4.110;2023-01-01T14:41:09;2.42;;;1.77;;
73239;SDS011;61452;40.054;4.110;2023-01-01T14:46:20;1.80;;;1.10;;
73239;SDS011;61452;40.054;4.110;2023-01-01T14:51:26;1.92;;;1.33;;
73239;SDS011;61452;40.054;4.110;2023-01-01T14:56:32;1.48;;;1.00;;
73239;SDS011;61452;40.054;4.110;2023-01-01T15:01:36;1.80;;;1.25;;
73239;SDS011;61452;40.054;4.110;2023-01-01T15:06:40;2.03;;;1.20;;
73239;SDS011;61452;40.054;4.110;2023-01-01T15:11:45;2.35;;;1.50;;
73239;SDS011;61452;40.054;4.110;2023-01-01T15:17:05;1.58;;;1.20;;
73239;SDS011;61452;40.054;4.110;2023-01-01T15:32:35;2.72;;;1.20;;
73239;SDS011;61452;40.054;4.110;2023-01-01T15:37:49;2.17;;;1.10;;
73239;SDS011;61452;40.054;4.110;2023-01-01T15:48:18;1.52;;;0.90;;
73239;SDS011;61452;40.054;4.110;2023-01-01T15:53:26;2.15;;;1.50;;
73239;SDS011;61452;40.054;4.110;2023-01-01T15:58:31;1.63;;;1.13;;
73239;SDS011;61452;40.054;4.110;2023-01-01T16:03:36;3.00;;;1.60;;
73239;SDS011;61452;40.054;4.110;2023-01-01T16:08:40;2.65;;;1.45;;
73239;SDS011;61452;40.054;4.110;2023-01-01T16:13:43;1.60;;;1.15;;
73239;SDS011;61452;40.054;4.110;2023-01-01T16:18:45;2.20;;;1.33;;
73239;SDS011;61452;40.054;4.110;2023-01-01T16:23:47;1.30;;;1.00;;
73239;SDS011;61452;40.054;4.110;2023-01-01T16:28:50;1.80;;;1.20;;
73239;SDS011;61452;40.054;4.110;2023-01-01T16:33:56;1.90;;;1.25;;
73239;SDS011;61452;40.054;4.110;2023-01-01T16:39:01;1.85;;;1.27;;
73239;SDS011;61452;40.054;4.110;2023-01-01T16:44:03;1.75;;;0.95;;
73239;SDS011;61452;40.054;4.110;2023-01-01T16:49:05;2.10;;;1.35;;
73239;SDS011;61452;40.054;4.110;2023-01-01T16:54:08;2.67;;;1.20;;
73239;SDS011;61452;40.054;4.110;2023-01-01T16:59:10;2.35;;;1.48;;
73239;SDS011;61452;40.054;4.110;2023-01-01T17:04:12;2.63;;;1.60;;
73239;SDS011;61452;40.054;4.110;2023-01-01T17:09:14;2.30;;;1.60;;
73239;SDS011;61452;40.054;4.110;2023-01-01T17:14:16;2.67;;;1.10;;
73239;SDS011;61452;40.054;4.110;2023-01-01T17:19:19;1.75;;;1.17;;
73239;SDS011;61452;40.054;4.110;2023-01-01T17:24:21;3.38;;;1.40;;
73239;SDS011;61452;40.054;4.110;2023-01-01T17:29:23;3.47;;;1.58;;
73239;SDS011;61452;40.054;4.110;2023-01-01T17:34:26;2.50;;;1.33;;
73239;SDS011;61452;40.054;4.110;2023-01-01T17:39:28;1.27;;;0.90;;
73239;SDS011;61452;40.054;4.110;2023-01-01T17:44:30;3.33;;;1.73;;
73239;SDS011;61452;40.054;4.110;2023-01-01T17:49:32;3.45;;;1.33;;
73239;SDS011;61452;40.054;4.110;2023-01-01T17:54:35;3.67;;;1.40;;
73239;SDS011;61452;40.054;4.110;2023-01-01T17:59:37;2.58;;;1.20;;
73239;SDS011;61452;40.054;4.110;2023-01-01T18:04:39;1.95;;;1.20;;
73239;SDS011;61452;40.054;4.110;2023-01-01T18:09:42;2.20;;;1.30;;
73239;SDS011;61452;40.054;4.110;2023-01-01T18:14:44;2.08;;;1.00;;
73239;SDS011;61452;40.054;4.110;2023-01-01T18:19:46;1.88;;;1.38;;
73239;SDS011;61452;40.054;4.110;2023-01-01T18:24:48;3.03;;;1.58;;
73239;SDS011;61452;40.054;4.110;2023-01-01T18:29:51;3.10;;;1.35;;
73239;SDS011;61452;40.054;4.110;2023-01-01T18:34:53;2.03;;;1.20;;
73239;SDS011;61452;40.054;4.110;2023-01-01T18:39:57;2.28;;;1.38;;
73239;SDS011;61452;40.054;4.110;2023-01-01T18:45:21;2.40;;;1.20;;
73239;SDS011;61452;40.054;4.110;2023-01-01T18:50:24;2.25;;;1.40;;
73239;SDS011;61452;40.054;4.110;2023-01-01T18:55:30;3.25;;;1.30;;
73239;SDS011;61452;40.054;4.110;2023-01-01T19:00:35;2.25;;;1.20;;
73239;SDS011;61452;40.054;4.110;2023-01-01T19:05:38;2.47;;;1.38;;
73239;SDS011;61452;40.054;4.110;2023-01-01T19:10:42;3.00;;;1.55;;
73239;SDS011;61452;40.054;4.110;2023-01-01T19:26:33;1.92;;;1.48;;
73239;SDS011;61452;40.054;4.110;2023-01-01T19:31:39;2.55;;;1.30;;
73239;SDS011;61452;40.054;4.110;2023-01-01T19:36:42;2.50;;;1.40;;
73239;SDS011;61452;40.054;4.110;2023-01-01T19:41:45;2.97;;;1.27;;
73239;SDS011;61452;40.054;4.110;2023-01-01T19:46:48;2.60;;;1.35;;
73239;SDS011;61452;40.054;4.110;2023-01-01T19:51:50;3.38;;;1.40;;
73239;SDS011;61452;40.054;4.110;2023-01-01T19:56:52;3.35;;;1.80;;
73239;SDS011;61452;40.054;4.110;2023-01-01T20:01:55;2.00;;;1.48;;
73239;SDS011;61452;40.054;4.110;2023-01-01T20:07:17;4.20;;;1.52;;
73239;SDS011;61452;40.054;4.110;2023-01-01T20:12:19;4.00;;;1.80;;
73239;SDS011;61452;40.054;4.110;2023-01-01T20:17:21;2.35;;;1.48;;
73239;SDS011;61452;40.054;4.110;2023-01-01T20:22:24;2.00;;;1.40;;
73239;SDS011;61452;40.054;4.110;2023-01-01T20:27:26;2.35;;;1.65;;
73239;SDS011;61452;40.054;4.110;2023-01-01T20:32:28;2.22;;;1.77;;
73239;SDS011;61452;40.054;4.110;2023-01-01T20:37:31;2.72;;;1.25;;
73239;SDS011;61452;40.054;4.110;2023-01-01T20:42:39;2.75;;;1.50;;
73239;SDS011;61452;40.054;4.110;2023-01-01T20:47:41;2.55;;;1.50;;
73239;SDS011;61452;40.054;4.110;2023-01-01T20:52:43;3.05;;;1.60;;
73239;SDS011;61452;40.054;4.110;2023-01-01T20:57:45;2.38;;;1.60;;
73239;SDS011;61452;40.054;4.110;2023-01-01T21:02:48;2.78;;;1.45;;
73239;SDS011;61452;40.054;4.110;2023-01-01T21:07:50;1.77;;;1.35;;
73239;SDS011;61452;40.054;4.110;2023-01-01T21:12:52;2.55;;;1.75;;
73239;SDS011;61452;40.054;4.110;2023-01-01T21:17:55;2.17;;;1.50;;
73239;SDS011;61452;40.054;4.110;2023-01-01T21:22:57;3.75;;;1.58;;
73239;SDS011;61452;40.054;4.110;2023-01-01T21:28:01;2.67;;;1.50;;
73239;SDS011;61452;40.054;4.110;2023-01-01T21:33:09;3.85;;;1.77;;
73239;SDS011;61452;40.054;4.110;2023-01-01T21:38:25;2.80;;;1.63;;
73239;SDS011;61452;40.054;4.110;2023-01-01T21:43:36;3.75;;;1.63;;
73239;SDS011;61452;40.054;4.110;2023-01-01T21:54:13;3.03;;;1.65;;
73239;SDS011;61452;40.054;4.110;2023-01-01T21:59:25;3.30;;;1.58;;
73239;SDS011;61452;40.054;4.110;2023-01-01T22:09:48;1.98;;;1.40;;
73239;SDS011;61452;40.054;4.110;2023-01-01T22:14:52;1.77;;;1.48;;
73239;SDS011;61452;40.054;4.110;2023-01-01T22:19:57;3.13;;;1.60;;
73239;SDS011;61452;40.054;4.110;2023-01-01T22:25:52;2.33;;;1.55;;
73239;SDS011;61452;40.054;4.110;2023-01-01T22:30:36;4.32;;;2.00;;
73239;SDS011;61452;40.054;4.110;2023-01-01T22:35:41;2.78;;;1.58;;
73239;SDS011;61452;40.054;4.110;2023-01-01T22:40:45;2.88;;;1.77;;
73239;SDS011;61452;40.054;4.110;2023-01-01T22:45:50;2.53;;;1.55;;
73239;SDS011;61452;40.054;4.110;2023-01-01T22:50:52;1.98;;;1.48;;
73239;SDS011;61452;40.054;4.110;2023-01-01T22:55:55;3.55;;;1.63;;
73239;SDS011;61452;40.054;4.110;2023-01-01T23:00:57;2.63;;;1.50;;
73239;SDS011;61452;40.054;4.110;2023-01-01T23:05:59;3.40;;;1.75;;
73239;SDS011;61452;40.054;4.110;2023-01-01T23:11:02;2.22;;;1.63;;
73239;SDS011;61452;40.054;4.110;2023-01-01T23:16:05;3.17;;;1.70;;
73239;SDS011;61452;40.054;4.110;2023-01-01T23:21:09;3.17;;;1.90;;
73239;SDS011;61452;40.054;4.110;2023-01-01T23:26:14;3.95;;;1.55;;
73239;SDS011;61452;40.054;4.110;2023-01-01T23:31:16;3.05;;;1.60;;
73239;SDS011;61452;40.054;4.110;2023-01-01T23:36:26;2.25;;;1.60;;
73239;SDS011;61452;40.054;4.110;2023-01-01T23:41:29;2.58;;;1.50;;
73239;SDS011;61452;40.054;4.110;2023-01-01T23:46:32;4.43;;;1.90;;
73239;SDS011;61452;40.054;4.110;2023-01-01T23:51:36;3.58;;;1.70;;
73239;SDS011;61452;40.054;4.110;2023-01-01T23:56:39;2.63;;;1.83;;
